sensor_id;sensor_type;location;lat;lon;timestamp;P1;durP1;ratioP1;P2;durP2;ratioP2
73150;SDS011;61354;50.758;6.106;2023-03-01T00:01:03;7.47;;;4.90;;
73150;SDS011;61354;50.758;6.106;2023-03-01T00:03:29;7.68;;;4.78;;
73150;SDS011;61354;50.758;6.106;2023-03-01T00:05:55;6.72;;;4.63;;
73150;SDS011;61354;50.758;6.106;2023-03-01T00:08:21;8.30;;;4.40;;
73150;SDS011;61354;50.758;6.106;2023-03-01T00:10:46;7.47;;;4.60;;
73150;SDS011;61354;50.758;6.106;2023-03-01T00:25:26;6.80;;;5.13;;
73150;SDS011;61354;50.758;6.106;2023-03-01T00:44:33;11.13;;;4.72;;
73150;SDS011;61354;50.758;6.106;2023-03-01T00:46:59;9.32;;;5.10;;
73150;SDS011;61354;50.758;6.106;2023-03-01T00:49:25;9.82;;;4.75;;
73150;SDS011;61354;50.758;6.106;2023-03-01T01:06:41;7.57;;;4.95;;
73150;SDS011;61354;50.758;6.106;2023-03-01T01:09:13;6.28;;;4.28;;
73150;SDS011;61354;50.758;6.106;2023-03-01T01:11:44;7.82;;;4.57;;
73150;SDS011;61354;50.758;6.106;2023-03-01T01:14:11;6.72;;;4.45;;
73150;SDS011;61354;50.758;6.106;2023-03-01T01:16:37;8.15;;;4.95;;
73150;SDS011;61354;50.758;6.106;2023-03-01T01:19:02;9.15;;;4.90;;
73150;SDS011;61354;50.758;6.106;2023-03-01T01:21:29;7.85;;;4.90;;
73150;SDS011;61354;50.758;6.106;2023-03-01T01:23:54;8.55;;;5.03;;
73150;SDS011;61354;50.758;6.106;2023-03-01T01:26:22;7.38;;;4.55;;
73150;SDS011;61354;50.758;6.106;2023-03-01T01:28:50;8.55;;;5.40;;
73150;SDS011;61354;50.758;6.106;2023-03-01T01:31:17;7.22;;;5.10;;
73150;SDS011;61354;50.758;6.106;2023-03-01T01:33:43;9.07;;;5.22;;
73150;SDS011;61354;50.758;6.106;2023-03-01T01:36:10;8.27;;;4.65;;
73150;SDS011;61354;50.758;6.106;2023-03-01T01:38:36;8.57;;;4.93;;
73150;SDS011;61354;50.758;6.106;2023-03-01T01:41:03;8.05;;;4.90;;
73150;SDS011;61354;50.758;6.106;2023-03-01T01:43:33;10.50;;;4.93;;
73150;SDS011;61354;50.758;6.106;2023-03-01T01:46:01;7.20;;;4.63;;
73150;SDS011;61354;50.758;6.106;2023-03-01T01:48:45;7.63;;;4.95;;
73150;SDS011;61354;50.758;6.106;2023-03-01T01:51:15;7.32;;;4.53;;
73150;SDS011;61354;50.758;6.106;2023-03-01T01:53:45;8.10;;;4.63;;
73150;SDS011;61354;50.758;6.106;2023-03-01T01:56:16;10.88;;;5.15;;
73150;SDS011;61354;50.758;6.106;2023-03-01T01:58:43;8.38;;;5.05;;
73150;SDS011;61354;50.758;6.106;2023-03-01T02:01:10;9.15;;;5.82;;
73150;SDS011;61354;50.758;6.106;2023-03-01T02:03:37;9.30;;;5.65;;
73150;SDS011;61354;50.758;6.106;2023-03-01T02:06:12;9.40;;;5.82;;
73150;SDS011;61354;50.758;6.106;2023-03-01T02:08:44;10.85;;;5.82;;
73150;SDS011;61354;50.758;6.106;2023-03-01T02:11:12;9.57;;;5.90;;
73150;SDS011;61354;50.758;6.106;2023-03-01T02:13:39;9.18;;;5.57;;
73150;SDS011;61354;50.758;6.106;2023-03-01T02:16:09;8.00;;;4.93;;
73150;SDS011;61354;50.758;6.106;2023-03-01T02:18:38;12.98;;;6.03;;
73150;SDS011;61354;50.758;6.106;2023-03-01T02:24:47;6.97;;;4.97;;
73150;SDS011;61354;50.758;6.106;2023-03-01T02:27:19;7.70;;;5.40;;
73150;SDS011;61354;50.758;6.106;2023-03-01T02:29:50;11.98;;;6.13;;
73150;SDS011;61354;50.758;6.106;2023-03-01T02:32:15;8.82;;;5.68;;
73150;SDS011;61354;50.758;6.106;2023-03-01T02:34:51;11.43;;;5.97;;
73150;SDS011;61354;50.758;6.106;2023-03-01T02:37:19;10.30;;;5.60;;
73150;SDS011;61354;50.758;6.106;2023-03-01T02:39:51;9.35;;;5.22;;
73150;SDS011;61354;50.758;6.106;2023-03-01T02:42:24;8.52;;;5.53;;
73150;SDS011;61354;50.758;6.106;2023-03-01T02:44:53;9.07;;;5.38;;
73150;SDS011;61354;50.758;6.106;2023-03-01T02:47:19;10.38;;;4.85;;
73150;SDS011;61354;50.758;6.106;2023-03-01T02:49:44;8.52;;;4.63;;
73150;SDS011;61354;50.758;6.106;2023-03-01T02:54:59;6.25;;;4.07;;
73150;SDS011;61354;50.758;6.106;2023-03-01T02:57:26;8.30;;;5.03;;
73150;SDS011;61354;50.758;6.106;2023-03-01T02:59:54;10.75;;;5.57;;
73150;SDS011;61354;50.758;6.106;2023-03-01T03:02:26;7.82;;;4.47;;
73150;SDS011;61354;50.758;6.106;2023-03-01T03:05:10;9.75;;;5.35;;
73150;SDS011;61354;50.758;6.106;2023-03-01T03:07:42;7.55;;;4.63;;
73150;SDS011;61354;50.758;6.106;2023-03-01T03:10:17;7.07;;;4.38;;
73150;SDS011;61354;50.758;6.106;2023-03-01T03:12:51;8.60;;;4.70;;
73150;SDS011;61354;50.758;6.106;2023-03-01T03:15:25;7.43;;;4.68;;
73150;SDS011;61354;50.758;6.106;2023-03-01T03:17:51;7.22;;;4.45;;
73150;SDS011;61354;50.758;6.106;2023-03-01T03:20:19;7.65;;;4.43;;
73150;SDS011;61354;50.758;6.106;2023-03-01T03:22:47;8.98;;;4.63;;
73150;SDS011;61354;50.758;6.106;2023-03-01T03:25:16;8.15;;;4.97;;
73150;SDS011;61354;50.758;6.106;2023-03-01T03:27:43;7.78;;;4.88;;
73150;SDS011;61354;50.758;6.106;2023-03-01T03:30:14;10.73;;;5.18;;
73150;SDS011;61354;50.758;6.106;2023-03-01T03:32:42;7.88;;;5.07;;
73150;SDS011;61354;50.758;6.106;2023-03-01T03:35:17;7.93;;;5.05;;
73150;SDS011;61354;50.758;6.106;2023-03-01T03:37:51;9.85;;;5.18;;
73150;SDS011;61354;50.758;6.106;2023-03-01T03:40:36;8.77;;;5.15;;
73150;SDS011;61354;50.758;6.106;2023-03-01T03:43:07;9.13;;;4.93;;
73150;SDS011;61354;50.758;6.106;2023-03-01T03:45:35;7.68;;;4.75;;
73150;SDS011;61354;50.758;6.106;2023-03-01T03:48:02;8.20;;;4.90;;
73150;SDS011;61354;50.758;6.106;2023-03-01T03:50:29;9.20;;;4.90;;
73150;SDS011;61354;50.758;6.106;2023-03-01T03:52:55;7.95;;;5.30;;
73150;SDS011;61354;50.758;6.106;2023-03-01T03:55:21;8.60;;;5.47;;
73150;SDS011;61354;50.758;6.106;2023-03-01T03:57:47;10.25;;;5.30;;
73150;SDS011;61354;50.758;6.106;2023-03-01T04:00:20;7.90;;;4.93;;
73150;SDS011;61354;50.758;6.106;2023-03-01T04:02:50;7.80;;;5.20;;
73150;SDS011;61354;50.758;6.106;2023-03-01T04:05:16;8.77;;;5.35;;
73150;SDS011;61354;50.758;6.106;2023-03-01T04:07:44;9.60;;;5.32;;
73150;SDS011;61354;50.758;6.106;2023-03-01T04:10:17;8.25;;;5.10;;
73150;SDS011;61354;50.758;6.106;2023-03-01T04:12:43;9.35;;;5.03;;
73150;SDS011;61354;50.758;6.106;2023-03-01T04:15:09;6.90;;;5.25;;
73150;SDS011;61354;50.758;6.106;2023-03-01T04:17:42;11.57;;;5.13;;
73150;SDS011;61354;50.758;6.106;2023-03-01T04:20:10;9.70;;;5.32;;
73150;SDS011;61354;50.758;6.106;2023-03-01T04:22:38;9.25;;;5.22;;
73150;SDS011;61354;50.758;6.106;2023-03-01T04:25:04;7.88;;;4.70;;
73150;SDS011;61354;50.758;6.106;2023-03-01T04:27:34;8.85;;;5.05;;
73150;SDS011;61354;50.758;6.106;2023-03-01T04:30:01;9.02;;;4.90;;
73150;SDS011;61354;50.758;6.106;2023-03-01T04:32:28;9.40;;;4.88;;
73150;SDS011;61354;50.758;6.106;2023-03-01T04:34:54;8.70;;;4.80;;
73150;SDS011;61354;50.758;6.106;2023-03-01T04:37:19;8.50;;;5.00;;
73150;SDS011;61354;50.758;6.106;2023-03-01T04:39:45;8.57;;;5.03;;
73150;SDS011;61354;50.758;6.106;2023-03-01T04:42:11;8.23;;;4.85;;
73150;SDS011;61354;50.758;6.106;2023-03-01T04:44:37;10.77;;;5.80;;
73150;SDS011;61354;50.758;6.106;2023-03-01T04:47:02;10.20;;;5.45;;
73150;SDS011;61354;50.758;6.106;2023-03-01T04:49:28;13.27;;;6.28;;
73150;SDS011;61354;50.758;6.106;2023-03-01T04:51:54;8.48;;;5.68;;
73150;SDS011;61354;50.758;6.106;2023-03-01T04:54:19;10.43;;;6.15;;
73150;SDS011;61354;50.758;6.106;2023-03-01T04:56:45;9.80;;;5.57;;
73150;SDS011;61354;50.758;6.106;2023-03-01T04:59:11;13.77;;;5.53;;
73150;SDS011;61354;50.758;6.106;2023-03-01T05:01:37;7.97;;;5.13;;
73150;SDS011;61354;50.758;6.106;2023-03-01T05:04:03;9.20;;;5.10;;
73150;SDS011;61354;50.758;6.106;2023-03-01T05:06:30;8.98;;;5.13;;
73150;SDS011;61354;50.758;6.106;2023-03-01T05:08:56;9.55;;;6.00;;
73150;SDS011;61354;50.758;6.106;2023-03-01T05:11:22;9.40;;;6.07;;
73150;SDS011;61354;50.758;6.106;2023-03-01T05:13:48;6.65;;;5.00;;
73150;SDS011;61354;50.758;6.106;2023-03-01T05:16:18;8.95;;;5.25;;
73150;SDS011;61354;50.758;6.106;2023-03-01T05:18:45;10.02;;;5.28;;
73150;SDS011;61354;50.758;6.106;2023-03-01T05:21:12;10.25;;;5.40;;
73150;SDS011;61354;50.758;6.106;2023-03-01T05:23:41;11.93;;;5.82;;
73150;SDS011;61354;50.758;6.106;2023-03-01T05:26:06;8.63;;;5.18;;
73150;SDS011;61354;50.758;6.106;2023-03-01T05:28:33;9.02;;;4.97;;
73150;SDS011;61354;50.758;6.106;2023-03-01T05:30:59;8.90;;;5.57;;
73150;SDS011;61354;50.758;6.106;2023-03-01T05:33:25;12.45;;;6.15;;
73150;SDS011;61354;50.758;6.106;2023-03-01T05:35:51;11.73;;;5.72;;
73150;SDS011;61354;50.758;6.106;2023-03-01T05:38:18;10.85;;;5.65;;
73150;SDS011;61354;50.758;6.106;2023-03-01T05:40:45;9.05;;;5.45;;
73150;SDS011;61354;50.758;6.106;2023-03-01T05:43:13;9.02;;;5.50;;
73150;SDS011;61354;50.758;6.106;2023-03-01T05:45:40;9.98;;;5.70;;
73150;SDS011;61354;50.758;6.106;2023-03-01T05:48:07;9.02;;;5.30;;
73150;SDS011;61354;50.758;6.106;2023-03-01T05:50:34;12.60;;;6.15;;
73150;SDS011;61354;50.758;6.106;2023-03-01T05:53:18;10.25;;;6.43;;
73150;SDS011;61354;50.758;6.106;2023-03-01T05:55:47;10.13;;;4.95;;
73150;SDS011;61354;50.758;6.106;2023-03-01T05:58:14;10.38;;;6.28;;
73150;SDS011;61354;50.758;6.106;2023-03-01T06:00:41;10.55;;;5.22;;
73150;SDS011;61354;50.758;6.106;2023-03-01T06:03:09;8.88;;;5.22;;
73150;SDS011;61354;50.758;6.106;2023-03-01T06:05:36;11.07;;;5.28;;
73150;SDS011;61354;50.758;6.106;2023-03-01T06:08:01;12.18;;;5.70;;
73150;SDS011;61354;50.758;6.106;2023-03-01T06:10:27;10.80;;;5.68;;
73150;SDS011;61354;50.758;6.106;2023-03-01T06:12:54;12.70;;;6.53;;
73150;SDS011;61354;50.758;6.106;2023-03-01T06:15:20;10.40;;;5.60;;
73150;SDS011;61354;50.758;6.106;2023-03-01T06:17:46;10.10;;;5.32;;
73150;SDS011;61354;50.758;6.106;2023-03-01T06:22:42;9.20;;;5.40;;
73150;SDS011;61354;50.758;6.106;2023-03-01T06:25:08;8.20;;;5.03;;
73150;SDS011;61354;50.758;6.106;2023-03-01T06:27:35;9.38;;;5.50;;
73150;SDS011;61354;50.758;6.106;2023-03-01T06:30:01;12.10;;;5.93;;
73150;SDS011;61354;50.758;6.106;2023-03-01T06:32:27;10.30;;;5.90;;
73150;SDS011;61354;50.758;6.106;2023-03-01T06:34:53;9.93;;;5.97;;
73150;SDS011;61354;50.758;6.106;2023-03-01T06:37:18;10.18;;;7.20;;
73150;SDS011;61354;50.758;6.106;2023-03-01T06:39:44;10.18;;;6.35;;
73150;SDS011;61354;50.758;6.106;2023-03-01T06:42:10;13.00;;;7.03;;
73150;SDS011;61354;50.758;6.106;2023-03-01T06:44:35;10.90;;;6.68;;
73150;SDS011;61354;50.758;6.106;2023-03-01T06:47:02;15.85;;;6.25;;
73150;SDS011;61354;50.758;6.106;2023-03-01T06:49:28;14.05;;;7.00;;
73150;SDS011;61354;50.758;6.106;2023-03-01T06:51:55;13.05;;;6.78;;
73150;SDS011;61354;50.758;6.106;2023-03-01T06:54:21;10.80;;;6.13;;
73150;SDS011;61354;50.758;6.106;2023-03-01T06:56:47;12.45;;;7.47;;
73150;SDS011;61354;50.758;6.106;2023-03-01T06:59:14;16.30;;;8.40;;
73150;SDS011;61354;50.758;6.106;2023-03-01T07:01:40;12.18;;;7.18;;
73150;SDS011;61354;50.758;6.106;2023-03-01T07:04:05;12.23;;;6.95;;
73150;SDS011;61354;50.758;6.106;2023-03-01T07:06:31;12.30;;;7.18;;
73150;SDS011;61354;50.758;6.106;2023-03-01T07:08:57;13.73;;;7.50;;
73150;SDS011;61354;50.758;6.106;2023-03-01T07:11:22;11.52;;;5.97;;
73150;SDS011;61354;50.758;6.106;2023-03-01T07:13:48;11.45;;;7.03;;
73150;SDS011;61354;50.758;6.106;2023-03-01T07:16:14;11.68;;;6.68;;
73150;SDS011;61354;50.758;6.106;2023-03-01T07:18:40;13.40;;;7.00;;
73150;SDS011;61354;50.758;6.106;2023-03-01T07:21:06;10.48;;;6.45;;
73150;SDS011;61354;50.758;6.106;2023-03-01T07:23:33;9.90;;;6.57;;
73150;SDS011;61354;50.758;6.106;2023-03-01T07:25:59;11.60;;;6.65;;
73150;SDS011;61354;50.758;6.106;2023-03-01T07:28:25;13.57;;;7.78;;
73150;SDS011;61354;50.758;6.106;2023-03-01T07:30:51;14.57;;;7.15;;
73150;SDS011;61354;50.758;6.106;2023-03-01T07:33:17;11.43;;;6.57;;
73150;SDS011;61354;50.758;6.106;2023-03-01T07:35:43;12.02;;;7.50;;
73150;SDS011;61354;50.758;6.106;2023-03-01T07:38:08;12.50;;;7.13;;
73150;SDS011;61354;50.758;6.106;2023-03-01T07:40:34;17.15;;;7.90;;
73150;SDS011;61354;50.758;6.106;2023-03-01T07:43:00;16.30;;;7.53;;
73150;SDS011;61354;50.758;6.106;2023-03-01T07:45:29;13.43;;;7.13;;
73150;SDS011;61354;50.758;6.106;2023-03-01T07:47:55;15.80;;;7.50;;
73150;SDS011;61354;50.758;6.106;2023-03-01T07:50:21;13.70;;;7.95;;
73150;SDS011;61354;50.758;6.106;2023-03-01T07:52:48;12.73;;;7.85;;
73150;SDS011;61354;50.758;6.106;2023-03-01T07:55:14;11.18;;;6.57;;
73150;SDS011;61354;50.758;6.106;2023-03-01T07:57:41;9.70;;;6.50;;
73150;SDS011;61354;50.758;6.106;2023-03-01T08:00:09;11.40;;;7.03;;
73150;SDS011;61354;50.758;6.106;2023-03-01T08:02:36;10.20;;;6.50;;
73150;SDS011;61354;50.758;6.106;2023-03-01T08:05:02;10.98;;;6.22;;
73150;SDS011;61354;50.758;6.106;2023-03-01T08:07:28;12.45;;;7.00;;
73150;SDS011;61354;50.758;6.106;2023-03-01T08:09:53;10.98;;;5.63;;
73150;SDS011;61354;50.758;6.106;2023-03-01T08:12:19;13.52;;;5.82;;
73150;SDS011;61354;50.758;6.106;2023-03-01T08:14:44;10.52;;;5.85;;
73150;SDS011;61354;50.758;6.106;2023-03-01T08:17:10;11.15;;;6.30;;
73150;SDS011;61354;50.758;6.106;2023-03-01T08:19:39;9.80;;;5.75;;
73150;SDS011;61354;50.758;6.106;2023-03-01T08:22:05;13.63;;;6.40;;
73150;SDS011;61354;50.758;6.106;2023-03-01T08:24:30;11.38;;;6.75;;
73150;SDS011;61354;50.758;6.106;2023-03-01T08:26:56;11.55;;;6.47;;
73150;SDS011;61354;50.758;6.106;2023-03-01T08:29:22;11.98;;;6.57;;
73150;SDS011;61354;50.758;6.106;2023-03-01T08:31:50;8.60;;;6.38;;
73150;SDS011;61354;50.758;6.106;2023-03-01T08:34:16;9.75;;;5.70;;
73150;SDS011;61354;50.758;6.106;2023-03-01T08:36:43;10.85;;;7.05;;
73150;SDS011;61354;50.758;6.106;2023-03-01T08:39:12;11.02;;;7.15;;
73150;SDS011;61354;50.758;6.106;2023-03-01T08:41:39;11.65;;;6.20;;
73150;SDS011;61354;50.758;6.106;2023-03-01T08:44:05;10.88;;;6.47;;
73150;SDS011;61354;50.758;6.106;2023-03-01T08:46:35;11.30;;;6.25;;
73150;SDS011;61354;50.758;6.106;2023-03-01T08:49:03;15.70;;;6.82;;
73150;SDS011;61354;50.758;6.106;2023-03-01T08:51:32;9.85;;;5.85;;
73150;SDS011;61354;50.758;6.106;2023-03-01T08:54:05;11.25;;;6.55;;
73150;SDS011;61354;50.758;6.106;2023-03-01T08:56:33;13.98;;;7.47;;
73150;SDS011;61354;50.758;6.106;2023-03-01T08:58:59;12.73;;;7.30;;
73150;SDS011;61354;50.758;6.106;2023-03-01T09:01:25;13.82;;;7.53;;
73150;SDS011;61354;50.758;6.106;2023-03-01T09:03:50;13.80;;;7.22;;
73150;SDS011;61354;50.758;6.106;2023-03-01T09:06:16;14.20;;;7.13;;
73150;SDS011;61354;50.758;6.106;2023-03-01T09:08:43;12.02;;;6.95;;
73150;SDS011;61354;50.758;6.106;2023-03-01T09:11:11;11.82;;;7.20;;
73150;SDS011;61354;50.758;6.106;2023-03-01T09:13:38;13.35;;;7.45;;
73150;SDS011;61354;50.758;6.106;2023-03-01T09:16:04;12.15;;;6.70;;
73150;SDS011;61354;50.758;6.106;2023-03-01T09:18:32;12.23;;;7.35;;
73150;SDS011;61354;50.758;6.106;2023-03-01T09:21:04;12.52;;;6.50;;
73150;SDS011;61354;50.758;6.106;2023-03-01T09:23:38;13.05;;;6.68;;
73150;SDS011;61354;50.758;6.106;2023-03-01T09:26:06;13.10;;;7.18;;
73150;SDS011;61354;50.758;6.106;2023-03-01T09:28:33;11.88;;;6.57;;
73150;SDS011;61354;50.758;6.106;2023-03-01T09:30:59;16.52;;;7.93;;
73150;SDS011;61354;50.758;6.106;2023-03-01T09:33:27;12.55;;;6.43;;
73150;SDS011;61354;50.758;6.106;2023-03-01T09:36:12;13.43;;;6.72;;
73150;SDS011;61354;50.758;6.106;2023-03-01T09:38:40;13.38;;;7.15;;
73150;SDS011;61354;50.758;6.106;2023-03-01T09:41:10;16.60;;;7.72;;
73150;SDS011;61354;50.758;6.106;2023-03-01T09:43:59;13.50;;;7.00;;
73150;SDS011;61354;50.758;6.106;2023-03-01T09:46:31;12.25;;;7.35;;
73150;SDS011;61354;50.758;6.106;2023-03-01T09:49:04;13.48;;;7.22;;
73150;SDS011;61354;50.758;6.106;2023-03-01T09:54:40;12.40;;;7.03;;
73150;SDS011;61354;50.758;6.106;2023-03-01T10:00:17;13.98;;;7.40;;
73150;SDS011;61354;50.758;6.106;2023-03-01T10:02:50;11.63;;;6.95;;
73150;SDS011;61354;50.758;6.106;2023-03-01T10:05:39;16.02;;;8.07;;
73150;SDS011;61354;50.758;6.106;2023-03-01T10:11:02;12.63;;;7.18;;
73150;SDS011;61354;50.758;6.106;2023-03-01T10:16:18;12.90;;;7.32;;
73150;SDS011;61354;50.758;6.106;2023-03-01T10:18:53;11.63;;;6.93;;
73150;SDS011;61354;50.758;6.106;2023-03-01T10:21:27;12.13;;;6.75;;
73150;SDS011;61354;50.758;6.106;2023-03-01T10:23:59;11.80;;;6.97;;
73150;SDS011;61354;50.758;6.106;2023-03-01T10:26:54;14.77;;;7.65;;
73150;SDS011;61354;50.758;6.106;2023-03-01T10:29:23;13.80;;;7.40;;
73150;SDS011;61354;50.758;6.106;2023-03-01T10:31:55;12.82;;;7.35;;
73150;SDS011;61354;50.758;6.106;2023-03-01T10:34:25;12.77;;;6.65;;
73150;SDS011;61354;50.758;6.106;2023-03-01T10:36:56;12.73;;;6.70;;
73150;SDS011;61354;50.758;6.106;2023-03-01T10:39:26;13.88;;;7.85;;
73150;SDS011;61354;50.758;6.106;2023-03-01T10:41:57;13.60;;;7.18;;
73150;SDS011;61354;50.758;6.106;2023-03-01T10:44:35;14.57;;;7.78;;
73150;SDS011;61354;50.758;6.106;2023-03-01T10:47:01;14.88;;;8.13;;
73150;SDS011;61354;50.758;6.106;2023-03-01T10:49:27;13.30;;;7.45;;
73150;SDS011;61354;50.758;6.106;2023-03-01T10:51:53;14.15;;;6.75;;
73150;SDS011;61354;50.758;6.106;2023-03-01T10:54:23;12.95;;;7.20;;
73150;SDS011;61354;50.758;6.106;2023-03-01T10:56:53;13.13;;;7.28;;
73150;SDS011;61354;50.758;6.106;2023-03-01T11:05:00;12.70;;;7.60;;
73150;SDS011;61354;50.758;6.106;2023-03-01T11:10:18;14.27;;;7.57;;
73150;SDS011;61354;50.758;6.106;2023-03-01T11:12:50;12.43;;;6.55;;
73150;SDS011;61354;50.758;6.106;2023-03-01T11:15:27;14.07;;;7.43;;
73150;SDS011;61354;50.758;6.106;2023-03-01T11:17:54;12.35;;;7.57;;
73150;SDS011;61354;50.758;6.106;2023-03-01T11:20:25;13.68;;;7.40;;
73150;SDS011;61354;50.758;6.106;2023-03-01T11:22:57;12.50;;;6.65;;
73150;SDS011;61354;50.758;6.106;2023-03-01T11:25:28;12.10;;;6.82;;
73150;SDS011;61354;50.758;6.106;2023-03-01T11:27:58;14.50;;;7.47;;
73150;SDS011;61354;50.758;6.106;2023-03-01T11:36:06;12.20;;;6.93;;
73150;SDS011;61354;50.758;6.106;2023-03-01T11:38:38;11.82;;;6.82;;
73150;SDS011;61354;50.758;6.106;2023-03-01T11:41:10;13.48;;;6.97;;
73150;SDS011;61354;50.758;6.106;2023-03-01T11:57:10;15.85;;;7.40;;
73150;SDS011;61354;50.758;6.106;2023-03-01T12:33:59;13.48;;;7.97;;
73150;SDS011;61354;50.758;6.106;2023-03-01T12:50:24;15.40;;;8.10;;
73150;SDS011;61354;50.758;6.106;2023-03-01T12:52:57;16.65;;;8.38;;
73150;SDS011;61354;50.758;6.106;2023-03-01T12:55:31;16.08;;;8.35;;
73150;SDS011;61354;50.758;6.106;2023-03-01T13:06:32;13.40;;;7.38;;
73150;SDS011;61354;50.758;6.106;2023-03-01T13:11:49;12.20;;;7.28;;
73150;SDS011;61354;50.758;6.106;2023-03-01T13:16:48;12.43;;;7.53;;
73150;SDS011;61354;50.758;6.106;2023-03-01T13:21:46;12.55;;;8.05;;
73150;SDS011;61354;50.758;6.106;2023-03-01T13:27:08;13.13;;;6.80;;
73150;SDS011;61354;50.758;6.106;2023-03-01T13:29:44;11.52;;;7.15;;
73150;SDS011;61354;50.758;6.106;2023-03-01T13:32:27;13.88;;;7.55;;
73150;SDS011;61354;50.758;6.106;2023-03-01T13:37:27;12.38;;;7.07;;
73150;SDS011;61354;50.758;6.106;2023-03-01T13:39:59;15.18;;;7.63;;
73150;SDS011;61354;50.758;6.106;2023-03-01T13:42:45;13.65;;;7.43;;
73150;SDS011;61354;50.758;6.106;2023-03-01T13:47:43;12.73;;;6.63;;
73150;SDS011;61354;50.758;6.106;2023-03-01T13:50:18;12.48;;;7.03;;
73150;SDS011;61354;50.758;6.106;2023-03-01T13:52:48;12.43;;;7.18;;
73150;SDS011;61354;50.758;6.106;2023-03-01T13:55:18;12.20;;;6.40;;
73150;SDS011;61354;50.758;6.106;2023-03-01T13:57:49;10.77;;;7.00;;
73150;SDS011;61354;50.758;6.106;2023-03-01T14:05:43;12.00;;;6.75;;
73150;SDS011;61354;50.758;6.106;2023-03-01T14:08:29;14.13;;;6.82;;
73150;SDS011;61354;50.758;6.106;2023-03-01T14:13:54;12.85;;;6.93;;
73150;SDS011;61354;50.758;6.106;2023-03-01T14:19:26;11.38;;;6.50;;
73150;SDS011;61354;50.758;6.106;2023-03-01T14:24:38;11.18;;;6.57;;
73150;SDS011;61354;50.758;6.106;2023-03-01T14:27:12;11.05;;;5.90;;
73150;SDS011;61354;50.758;6.106;2023-03-01T14:29:39;13.43;;;6.88;;
73150;SDS011;61354;50.758;6.106;2023-03-01T14:32:38;11.65;;;6.38;;
73150;SDS011;61354;50.758;6.106;2023-03-01T14:34:58;9.68;;;5.25;;
73150;SDS011;61354;50.758;6.106;2023-03-01T14:37:26;13.88;;;7.65;;
73150;SDS011;61354;50.758;6.106;2023-03-01T14:39:57;11.35;;;6.45;;
73150;SDS011;61354;50.758;6.106;2023-03-01T14:42:26;11.50;;;6.75;;
73150;SDS011;61354;50.758;6.106;2023-03-01T14:44:55;19.75;;;7.38;;
73150;SDS011;61354;50.758;6.106;2023-03-01T14:47:26;14.00;;;6.90;;
73150;SDS011;61354;50.758;6.106;2023-03-01T14:50:01;13.63;;;6.97;;
73150;SDS011;61354;50.758;6.106;2023-03-01T14:52:30;12.25;;;6.93;;
73150;SDS011;61354;50.758;6.106;2023-03-01T14:54:59;10.82;;;6.32;;
73150;SDS011;61354;50.758;6.106;2023-03-01T14:57:27;12.90;;;6.93;;
73150;SDS011;61354;50.758;6.106;2023-03-01T14:59:54;12.27;;;7.40;;
73150;SDS011;61354;50.758;6.106;2023-03-01T15:02:23;10.73;;;6.50;;
73150;SDS011;61354;50.758;6.106;2023-03-01T15:04:51;14.57;;;6.82;;
73150;SDS011;61354;50.758;6.106;2023-03-01T15:07:22;11.95;;;7.18;;
73150;SDS011;61354;50.758;6.106;2023-03-01T15:09:51;11.60;;;6.72;;
73150;SDS011;61354;50.758;6.106;2023-03-01T15:14:52;11.85;;;7.03;;
73150;SDS011;61354;50.758;6.106;2023-03-01T15:19:56;11.15;;;6.95;;
73150;SDS011;61354;50.758;6.106;2023-03-01T15:22:22;11.52;;;7.00;;
73150;SDS011;61354;50.758;6.106;2023-03-01T15:27:16;13.82;;;6.55;;
73150;SDS011;61354;50.758;6.106;2023-03-01T15:29:48;13.20;;;6.57;;
73150;SDS011;61354;50.758;6.106;2023-03-01T15:32:30;11.07;;;6.40;;
73150;SDS011;61354;50.758;6.106;2023-03-01T15:34:58;14.48;;;7.30;;
73150;SDS011;61354;50.758;6.106;2023-03-01T15:40:22;12.90;;;6.07;;
73150;SDS011;61354;50.758;6.106;2023-03-01T15:43:06;12.30;;;7.13;;
73150;SDS011;61354;50.758;6.106;2023-03-01T15:45:58;9.35;;;5.97;;
73150;SDS011;61354;50.758;6.106;2023-03-01T15:48:23;11.43;;;6.15;;
73150;SDS011;61354;50.758;6.106;2023-03-01T15:50:58;10.90;;;6.38;;
73150;SDS011;61354;50.758;6.106;2023-03-01T15:53:24;12.98;;;6.38;;
73150;SDS011;61354;50.758;6.106;2023-03-01T15:55:52;10.80;;;6.45;;
73150;SDS011;61354;50.758;6.106;2023-03-01T15:58:22;10.38;;;5.97;;
73150;SDS011;61354;50.758;6.106;2023-03-01T16:00:52;10.32;;;6.82;;
73150;SDS011;61354;50.758;6.106;2023-03-01T16:03:22;10.77;;;5.05;;
73150;SDS011;61354;50.758;6.106;2023-03-01T16:05:48;11.18;;;6.28;;
73150;SDS011;61354;50.758;6.106;2023-03-01T16:08:15;9.57;;;5.72;;
73150;SDS011;61354;50.758;6.106;2023-03-01T16:10:42;11.80;;;6.32;;
73150;SDS011;61354;50.758;6.106;2023-03-01T16:13:12;10.15;;;6.28;;
73150;SDS011;61354;50.758;6.106;2023-03-01T16:15:38;9.00;;;5.88;;
73150;SDS011;61354;50.758;6.106;2023-03-01T16:18:05;10.90;;;6.47;;
73150;SDS011;61354;50.758;6.106;2023-03-01T16:20:33;10.05;;;5.78;;
73150;SDS011;61354;50.758;6.106;2023-03-01T16:22:59;11.40;;;5.93;;
73150;SDS011;61354;50.758;6.106;2023-03-01T16:25:27;11.88;;;6.13;;
73150;SDS011;61354;50.758;6.106;2023-03-01T16:27:53;11.57;;;6.07;;
73150;SDS011;61354;50.758;6.106;2023-03-01T16:30:21;10.88;;;5.85;;
73150;SDS011;61354;50.758;6.106;2023-03-01T16:32:48;8.93;;;5.50;;
73150;SDS011;61354;50.758;6.106;2023-03-01T16:35:15;9.60;;;5.22;;
73150;SDS011;61354;50.758;6.106;2023-03-01T16:37:45;10.10;;;5.70;;
73150;SDS011;61354;50.758;6.106;2023-03-01T16:40:22;9.90;;;5.53;;
73150;SDS011;61354;50.758;6.106;2023-03-01T16:42:51;11.13;;;6.13;;
73150;SDS011;61354;50.758;6.106;2023-03-01T16:45:17;9.45;;;6.40;;
73150;SDS011;61354;50.758;6.106;2023-03-01T16:47:43;10.27;;;5.85;;
73150;SDS011;61354;50.758;6.106;2023-03-01T16:50:09;9.55;;;5.65;;
73150;SDS011;61354;50.758;6.106;2023-03-01T16:52:35;9.63;;;5.78;;
73150;SDS011;61354;50.758;6.106;2023-03-01T16:55:04;9.00;;;5.25;;
73150;SDS011;61354;50.758;6.106;2023-03-01T16:57:35;8.60;;;4.93;;
73150;SDS011;61354;50.758;6.106;2023-03-01T17:00:03;10.02;;;5.72;;
73150;SDS011;61354;50.758;6.106;2023-03-01T17:02:33;8.98;;;5.40;;
73150;SDS011;61354;50.758;6.106;2023-03-01T17:04:59;10.38;;;5.18;;
73150;SDS011;61354;50.758;6.106;2023-03-01T17:07:25;10.05;;;6.53;;
73150;SDS011;61354;50.758;6.106;2023-03-01T17:09:51;10.13;;;5.68;;
73150;SDS011;61354;50.758;6.106;2023-03-01T17:12:16;10.48;;;5.90;;
73150;SDS011;61354;50.758;6.106;2023-03-01T17:14:42;10.88;;;5.50;;
73150;SDS011;61354;50.758;6.106;2023-03-01T17:17:08;10.48;;;5.88;;
73150;SDS011;61354;50.758;6.106;2023-03-01T17:19:35;12.10;;;6.13;;
73150;SDS011;61354;50.758;6.106;2023-03-01T17:22:05;9.55;;;5.80;;
73150;SDS011;61354;50.758;6.106;2023-03-01T17:24:35;12.02;;;6.07;;
73150;SDS011;61354;50.758;6.106;2023-03-01T17:27:01;13.20;;;6.72;;
73150;SDS011;61354;50.758;6.106;2023-03-01T17:29:28;11.02;;;6.07;;
73150;SDS011;61354;50.758;6.106;2023-03-01T17:31:53;12.20;;;6.70;;
73150;SDS011;61354;50.758;6.106;2023-03-01T17:34:21;9.77;;;5.93;;
73150;SDS011;61354;50.758;6.106;2023-03-01T17:36:47;11.63;;;6.13;;
73150;SDS011;61354;50.758;6.106;2023-03-01T17:39:15;11.45;;;6.15;;
73150;SDS011;61354;50.758;6.106;2023-03-01T17:41:41;10.05;;;6.18;;
73150;SDS011;61354;50.758;6.106;2023-03-01T17:44:07;10.45;;;5.72;;
73150;SDS011;61354;50.758;6.106;2023-03-01T17:46:33;12.23;;;5.45;;
73150;SDS011;61354;50.758;6.106;2023-03-01T17:48:59;10.40;;;5.80;;
73150;SDS011;61354;50.758;6.106;2023-03-01T17:51:24;11.07;;;5.97;;
73150;SDS011;61354;50.758;6.106;2023-03-01T17:53:50;12.40;;;6.60;;
73150;SDS011;61354;50.758;6.106;2023-03-01T17:56:16;11.48;;;6.63;;